createdAt,value
2023-02-22T00:01:50.779Z,97125.44
2023-02-22T00:03:55.479Z,97121.25
2023-02-22T00:05:59.838Z,97132.53
2023-02-22T00:08:02.371Z,97125.81
2023-02-22T00:10:09.117Z,97127.59
2023-02-22T00:12:11.768Z,97123.41
2023-02-22T00:14:14.338Z,97123.41
2023-02-22T00:16:18.521Z,97115.72
2023-02-22T00:18:21.141Z,97113.13
2023-02-22T00:20:25.060Z,97112.25
2023-02-22T00:22:27.672Z,97104.56
2023-02-22T00:24:31.367Z,97108.06
2023-02-22T00:26:34.683Z,97109.94
2023-02-22T00:28:37.955Z,97110.00
2023-02-22T00:30:43.554Z,97107.34
2023-02-22T00:32:47.005Z,97104.66
2023-02-22T00:34:53.059Z,97098.59
2023-02-22T00:36:57.006Z,97096.69
2023-02-22T00:38:59.536Z,97104.47
2023-02-22T00:41:02.142Z,97104.38
2023-02-22T00:43:07.017Z,97113.88
2023-02-22T00:45:10.165Z,97108.69
2023-02-22T00:47:12.733Z,97105.16
2023-02-22T00:49:15.296Z,97101.75
2023-02-22T00:51:18.239Z,97108.84
2023-02-22T00:53:23.351Z,97109.91
2023-02-22T00:55:27.585Z,97107.47
2023-02-22T00:57:30.160Z,97109.44
2023-02-22T00:59:32.732Z,97112.16
2023-02-22T01:01:35.408Z,97110.44
2023-02-22T01:03:41.245Z,97113.22
2023-02-22T01:05:44.523Z,97109.00
2023-02-22T01:07:47.778Z,97110.81
2023-02-22T01:09:51.682Z,97107.44
2023-02-22T01:11:56.215Z,97110.03
2023-02-22T01:13:59.929Z,97104.13
2023-02-22T01:16:03.192Z,97104.19
2023-02-22T01:18:06.522Z,97103.44
2023-02-22T01:20:12.692Z,97100.88
2023-02-22T01:22:15.269Z,97100.84
2023-02-22T01:24:18.979Z,97102.56
2023-02-22T01:26:22.948Z,97097.13
2023-02-22T01:28:25.895Z,97095.38
2023-02-22T01:30:31.076Z,97097.25
2023-02-22T01:32:36.980Z,97092.06
2023-02-22T01:34:40.079Z,97084.34
2023-02-22T01:36:42.876Z,97078.28
2023-02-22T01:38:46.040Z,97081.69
2023-02-22T01:40:50.631Z,97084.19
2023-02-22T01:42:57.722Z,97072.38
2023-02-22T01:45:52.120Z,97071.78
2023-02-22T01:47:55.531Z,97061.53
2023-02-22T01:49:58.178Z,97064.16
2023-02-22T01:52:03.748Z,97062.44
2023-02-22T01:54:13.583Z,97061.50
2023-02-22T01:56:17.033Z,97058.03
2023-02-22T01:58:23.019Z,97053.59
2023-02-22T02:00:27.659Z,97056.22
2023-02-22T02:02:30.413Z,97057.09
2023-02-22T02:04:35.252Z,97056.19
2023-02-22T02:06:38.638Z,97053.53
2023-02-22T02:08:49.882Z,97049.19
2023-02-22T02:10:54.474Z,97051.81
2023-02-22T02:12:59.260Z,97048.41
2023-02-22T02:15:18.823Z,97045.00
2023-02-22T02:17:23.937Z,97035.50
2023-02-22T02:19:36.866Z,97037.31
2023-02-22T02:22:14.151Z,97036.50
2023-02-22T02:25:08.642Z,97030.56
2023-02-22T02:27:18.136Z,97025.44
2023-02-22T02:29:48.368Z,97023.81
2023-02-22T02:32:21.112Z,97022.94
2023-02-22T02:34:31.866Z,97028.16
2023-02-22T02:36:44.648Z,97020.53
2023-02-22T02:38:51.749Z,97016.25
2023-02-22T02:41:04.428Z,97016.28
2023-02-22T02:43:13.346Z,97009.44
2023-02-22T02:45:20.184Z,97012.16
2023-02-22T02:47:28.852Z,97007.84
2023-02-22T02:49:36.560Z,97006.94
2023-02-22T02:51:42.811Z,96999.22
2023-02-22T02:53:51.215Z,96991.53
2023-02-22T02:55:53.849Z,96997.66
2023-02-22T02:57:56.735Z,96991.69
2023-02-22T02:59:59.349Z,96996.09
2023-02-22T03:02:15.323Z,96990.16
2023-02-22T03:04:28.684Z,96985.91
2023-02-22T03:06:51.074Z,96983.38
2023-02-22T03:09:02.384Z,96991.09
2023-02-22T03:11:15.128Z,96973.22
2023-02-22T03:13:26.490Z,96974.13
2023-02-22T03:15:43.582Z,96981.06
2023-02-22T03:17:54.173Z,96979.47
2023-02-22T03:20:02.721Z,96987.25
2023-02-22T03:22:14.050Z,96979.59
2023-02-22T03:24:23.040Z,96984.84
2023-02-22T03:26:32.752Z,96980.59
2023-02-22T03:28:41.086Z,96977.19
2023-02-22T03:30:49.216Z,96974.66
2023-02-22T03:32:57.070Z,96976.53
2023-02-22T03:35:06.691Z,96976.66
2023-02-22T03:37:15.877Z,96973.28
2023-02-22T03:39:20.412Z,96974.84
2023-02-22T03:41:26.155Z,96977.72
2023-02-22T03:43:33.819Z,96974.22
2023-02-22T03:45:38.302Z,96973.34
2023-02-22T03:47:44.502Z,96970.03
2023-02-22T03:49:53.083Z,96971.97
2023-02-22T03:51:57.357Z,96964.31
2023-02-22T03:54:00.416Z,96968.69
2023-02-22T03:56:07.189Z,96970.47
2023-02-22T03:58:13.178Z,96962.81
2023-02-22T04:00:21.430Z,96964.56
2023-02-22T04:02:24.036Z,96965.41
2023-02-22T04:04:27.368Z,96966.22
2023-02-22T04:06:30.518Z,96965.34
2023-02-22T04:08:35.191Z,96966.94
2023-02-22T04:10:38.474Z,96961.75
2023-02-22T04:12:41.067Z,96968.63
2023-02-22T04:14:43.643Z,96961.47
2023-02-22T04:16:46.247Z,96964.09
2023-02-22T04:18:48.817Z,96959.81
2023-02-22T04:20:51.677Z,96969.31
2023-02-22T04:22:55.300Z,96965.94
2023-02-22T04:24:59.263Z,96962.50
2023-02-22T04:27:01.846Z,96964.25
2023-02-22T04:29:04.761Z,96969.44
2023-02-22T04:31:07.443Z,96958.28
2023-02-22T04:33:10.651Z,96961.75
2023-02-22T04:35:13.605Z,96963.47
2023-02-22T04:37:16.276Z,96961.69
2023-02-22T04:39:19.014Z,96962.59
2023-02-22T04:41:25.239Z,96965.22
2023-02-22T04:43:28.167Z,96966.94
2023-02-22T04:45:30.798Z,96962.72
2023-02-22T04:47:33.360Z,96960.16
2023-02-22T04:49:38.672Z,96962.81
2023-02-22T04:51:42.475Z,96967.97
2023-02-22T04:53:45.151Z,96958.47
2023-02-22T04:55:47.729Z,96959.34
2023-02-22T04:57:51.829Z,96957.56
2023-02-22T04:59:54.608Z,96965.34
2023-02-22T05:01:57.230Z,96957.50
2023-02-22T05:03:59.809Z,96963.50
2023-02-22T05:06:02.409Z,96966.06
2023-02-22T05:08:08.048Z,96961.81
2023-02-22T05:10:11.266Z,96962.63
2023-02-22T05:12:13.941Z,96965.19
2023-02-22T05:14:18.007Z,96958.38
2023-02-22T05:16:20.684Z,96955.75
2023-02-22T05:18:23.396Z,96954.88
2023-02-22T05:20:30.534Z,96959.16
2023-02-22T05:22:33.192Z,96958.28
2023-02-22T05:24:35.809Z,96962.56
2023-02-22T05:26:38.368Z,96954.81
2023-02-22T05:28:41.034Z,96953.97
2023-02-22T05:30:45.336Z,96953.97
2023-02-22T05:32:47.983Z,96955.69
2023-02-22T05:34:50.596Z,96956.63
2023-02-22T05:36:53.202Z,96954.13
2023-02-22T05:38:55.938Z,96950.66
2023-02-22T05:40:58.601Z,96951.56
2023-02-22T05:43:02.173Z,96945.63
2023-02-22T05:45:05.159Z,96943.03
2023-02-22T05:47:09.079Z,96946.44
2023-02-22T05:49:11.698Z,96945.16
2023-02-22T05:51:14.496Z,96942.97
2023-02-22T05:53:17.152Z,96941.31
2023-02-22T05:55:22.253Z,96934.47
2023-02-22T05:57:24.848Z,96930.19
2023-02-22T05:59:27.959Z,96939.63
2023-02-22T06:01:30.543Z,96936.16
2023-02-22T06:03:34.443Z,96931.00
2023-02-22T06:05:37.839Z,96926.75
2023-02-22T06:07:40.431Z,96930.19
2023-02-22T06:09:43.133Z,96931.97
2023-02-22T06:11:45.739Z,96929.41
2023-02-22T06:13:52.450Z,96926.81
2023-02-22T06:15:55.072Z,96929.41
2023-02-22T06:17:58.787Z,96928.53
2023-02-22T06:20:02.865Z,96927.59
2023-02-22T06:22:05.449Z,96926.75
2023-02-22T06:24:08.277Z,96930.13
2023-02-22T06:26:10.885Z,96929.28
2023-02-22T06:28:13.457Z,96929.22
2023-02-22T06:30:18.649Z,96934.31
2023-02-22T06:32:21.269Z,96933.56
2023-02-22T06:34:23.845Z,96939.66
2023-02-22T06:36:27.823Z,96936.22
2023-02-22T06:38:30.418Z,96938.78
2023-02-22T06:40:33.075Z,96931.94
2023-02-22T06:42:35.648Z,96935.44
2023-02-22T06:44:38.188Z,96938.91
2023-02-22T06:46:40.794Z,96938.00
2023-02-22T06:48:43.372Z,96934.56
2023-02-22T06:50:45.958Z,96935.41
2023-02-22T06:52:49.896Z,96938.84
2023-02-22T06:54:52.823Z,96943.09
2023-02-22T06:56:55.394Z,96943.06
2023-02-22T06:58:58.074Z,96949.97
2023-02-22T07:01:02.806Z,96942.19
2023-02-22T07:03:05.796Z,96938.69
2023-02-22T07:05:08.887Z,96943.81
2023-02-22T07:07:11.510Z,96936.00
2023-02-22T07:09:16.430Z,96942.00
2023-02-22T07:11:19.397Z,96940.16
2023-02-22T07:13:22.035Z,96940.13
2023-02-22T07:15:26.477Z,96933.16
2023-02-22T07:17:29.022Z,96930.44
2023-02-22T07:19:31.614Z,96938.13
2023-02-22T07:21:34.200Z,96932.09
2023-02-22T07:23:36.785Z,96932.88
2023-02-22T07:25:40.685Z,96931.06
2023-02-22T07:27:43.628Z,96931.03
2023-02-22T07:29:46.773Z,96934.41
2023-02-22T07:31:49.622Z,96930.06
2023-02-22T07:33:52.464Z,96928.25
2023-02-22T07:35:55.044Z,96929.09
2023-02-22T07:37:57.991Z,96934.19
2023-02-22T07:40:00.592Z,96933.25
2023-02-22T07:42:04.840Z,96936.59
2023-02-22T07:44:07.449Z,96928.69
2023-02-22T07:46:10.075Z,96938.22
2023-02-22T07:48:14.338Z,96931.31
2023-02-22T07:50:20.330Z,96934.31
2023-02-22T07:52:22.908Z,96934.72
2023-02-22T07:54:25.478Z,96933.16
2023-02-22T07:56:28.101Z,96943.91
2023-02-22T07:58:33.049Z,96942.88
2023-02-22T08:00:37.533Z,96938.97
2023-02-22T08:02:40.179Z,96944.25
2023-02-22T08:04:42.776Z,96944.25
2023-02-22T08:06:46.286Z,96949.72
2023-02-22T08:08:48.844Z,96946.97
2023-02-22T08:10:52.850Z,96948.00
2023-02-22T08:12:56.180Z,96945.28
2023-02-22T08:15:00.357Z,96944.25
2023-02-22T08:17:02.978Z,96945.88
2023-02-22T08:19:05.634Z,96946.00
2023-02-22T08:21:08.278Z,96947.13
2023-02-22T08:23:12.355Z,96946.03
2023-02-22T08:25:16.535Z,96934.16
2023-02-22T08:27:23.355Z,96947.09
2023-02-22T08:29:33.315Z,96941.00
2023-02-22T08:31:37.372Z,96944.41
2023-02-22T08:33:39.963Z,96944.31
2023-02-22T08:35:42.867Z,96942.56
2023-02-22T08:37:46.533Z,96940.72
2023-02-22T08:39:49.207Z,96942.31
2023-02-22T08:41:51.820Z,96941.25
2023-02-22T08:43:54.544Z,96935.59
2023-02-22T08:45:57.920Z,96933.78
2023-02-22T08:48:01.951Z,96941.59
2023-02-22T08:50:05.053Z,96934.09
2023-02-22T08:52:07.633Z,96936.00
2023-02-22T08:54:10.268Z,96929.91
2023-02-22T08:56:12.919Z,96930.59
2023-02-22T08:58:15.640Z,96932.34
2023-02-22T09:00:19.516Z,96926.63
2023-02-22T09:02:23.233Z,96926.53
2023-02-22T09:04:27.392Z,96927.16
2023-02-22T09:06:30.593Z,96928.47
2023-02-22T09:08:33.139Z,96927.59
2023-02-22T09:10:36.535Z,96933.69
2023-02-22T09:12:39.205Z,96929.50
2023-02-22T09:14:42.994Z,96926.03
2023-02-22T09:16:46.265Z,96930.41
2023-02-22T09:18:48.884Z,96929.50
2023-02-22T09:20:53.348Z,96932.03
2023-02-22T09:22:56.279Z,96924.25
2023-02-22T09:25:02.643Z,96928.56
2023-02-22T09:27:12.138Z,96922.59
2023-02-22T09:29:15.040Z,96931.34
2023-02-22T09:31:18.044Z,96928.19
2023-02-22T09:33:21.991Z,96926.44
2023-02-22T09:35:27.020Z,96924.75
2023-02-22T09:37:31.280Z,96918.72
2023-02-22T09:39:37.585Z,96921.47
2023-02-22T09:41:50.035Z,96925.13
2023-02-22T09:44:02.216Z,96914.81
2023-02-22T09:46:20.220Z,96916.50
2023-02-22T09:48:25.351Z,96913.28
2023-02-22T09:50:35.605Z,96910.53
2023-02-22T09:52:44.840Z,96907.25
2023-02-22T09:54:52.070Z,96906.53
2023-02-22T09:56:58.973Z,96910.75
2023-02-22T09:59:04.663Z,96900.22
2023-02-22T10:01:20.590Z,96900.13
2023-02-22T10:03:29.190Z,96901.50
2023-02-22T10:05:37.626Z,96903.97
2023-02-22T10:07:48.085Z,96901.03
2023-02-22T10:09:51.262Z,96900.16
2023-02-22T10:11:59.986Z,96898.28
2023-02-22T10:14:15.546Z,96895.56
2023-02-22T10:16:24.931Z,96906.59
2023-02-22T10:19:00.185Z,96896.19
2023-02-22T10:21:10.743Z,96898.44
2023-02-22T10:23:25.981Z,96894.84
2023-02-22T10:25:34.971Z,96899.00
2023-02-22T10:27:41.210Z,96904.22
2023-02-22T10:29:47.972Z,96897.59
2023-02-22T10:31:55.586Z,96896.47
2023-02-22T10:34:01.601Z,96892.81
2023-02-22T10:36:05.032Z,96892.09
2023-02-22T10:38:17.610Z,96890.31
2023-02-22T10:40:23.029Z,96894.97
2023-02-22T10:42:28.935Z,96894.38
2023-02-22T10:44:31.504Z,96891.00
2023-02-22T10:46:35.275Z,96893.44
2023-02-22T10:48:41.185Z,96891.97
2023-02-22T10:50:45.964Z,96896.91
2023-02-22T10:52:48.998Z,96896.97
2023-02-22T10:55:01.027Z,96896.06
2023-02-22T10:57:09.410Z,96895.19
2023-02-22T10:59:12.600Z,96895.03
2023-02-22T11:01:27.596Z,96887.56
2023-02-22T11:03:30.698Z,96884.19
2023-02-22T11:05:37.198Z,96880.28
2023-02-22T11:07:42.626Z,96886.00
2023-02-22T11:09:53.276Z,96880.78
2023-02-22T11:12:11.600Z,96878.91
2023-02-22T11:14:25.499Z,96874.94
2023-02-22T11:16:34.192Z,96870.38
2023-02-22T11:18:39.991Z,96868.13
2023-02-22T11:20:42.615Z,96863.25
2023-02-22T11:22:48.228Z,96864.44
2023-02-22T11:24:58.056Z,96861.97
2023-02-22T11:27:03.556Z,96858.59
2023-02-22T11:29:18.839Z,96855.09
2023-02-22T11:31:23.831Z,96853.34
2023-02-22T11:33:29.354Z,96844.41
2023-02-22T11:35:37.026Z,96844.34
2023-02-22T11:37:39.662Z,96834.72
2023-02-22T11:39:43.855Z,96832.91
2023-02-22T11:41:49.250Z,96832.69
2023-02-22T11:43:54.346Z,96830.88
2023-02-22T11:46:04.687Z,96825.59
2023-02-22T11:48:09.154Z,96822.88
2023-02-22T11:50:22.179Z,96820.13
2023-02-22T11:52:31.099Z,96811.00
2023-02-22T11:54:46.805Z,96802.22
2023-02-22T11:56:51.416Z,96808.00
2023-02-22T11:59:02.730Z,96806.81
2023-02-22T12:01:17.445Z,96802.44
2023-02-22T12:03:32.884Z,96803.03
2023-02-22T12:06:00.649Z,96793.81
2023-02-22T12:08:19.850Z,96793.75
2023-02-22T12:10:35.040Z,96791.78
2023-02-22T12:12:48.181Z,96786.38
2023-02-22T12:15:00.962Z,96788.84
2023-02-22T12:17:20.439Z,96789.53
2023-02-22T12:19:30.425Z,96788.38
2023-02-22T12:21:37.253Z,96786.47
2023-02-22T12:23:45.767Z,96787.19
2023-02-22T12:25:58.567Z,96780.91
2023-02-22T12:28:23.670Z,96779.78
2023-02-22T12:30:30.235Z,96783.03
2023-02-22T12:32:41.699Z,96782.78
2023-02-22T12:34:48.973Z,96786.03
2023-02-22T12:36:56.627Z,96786.66
2023-02-22T12:39:07.469Z,96778.53
2023-02-22T12:41:18.410Z,96772.03
2023-02-22T12:43:26.486Z,96775.94
2023-02-22T12:45:36.872Z,96780.88
2023-02-22T12:47:50.214Z,96779.72
2023-02-22T12:49:58.371Z,96775.94
2023-02-22T12:52:20.954Z,96773.19
2023-02-22T12:54:37.840Z,96781.56
2023-02-22T12:56:45.904Z,96774.34
2023-02-22T12:58:54.966Z,96770.34
2023-02-22T13:01:01.734Z,96776.63
2023-02-22T13:03:17.986Z,96768.88
2023-02-22T13:05:20.845Z,96767.44
2023-02-22T13:07:39.242Z,96769.63
2023-02-22T13:10:04.411Z,96770.03
2023-02-22T13:12:17.430Z,96774.53
2023-02-22T13:14:44.451Z,96769.38
2023-02-22T13:16:55.279Z,96767.41
2023-02-22T13:19:09.893Z,96763.81
2023-02-22T13:21:19.951Z,96767.28
2023-02-22T13:23:38.944Z,96765.25
2023-02-22T13:25:49.939Z,96767.56
2023-02-22T13:27:59.946Z,96764.94
2023-02-22T13:30:03.885Z,96764.00
2023-02-22T13:32:20.209Z,96759.75
2023-02-22T13:34:44.848Z,96763.22
2023-02-22T13:37:08.494Z,96760.72
2023-02-22T13:39:40.953Z,96758.09
2023-02-22T13:42:00.389Z,96762.63
2023-02-22T13:44:19.766Z,96758.28
2023-02-22T13:46:35.562Z,96758.03
2023-02-22T13:49:06.502Z,96754.84
2023-02-22T13:51:24.147Z,96757.78
2023-02-22T13:53:32.868Z,96759.47
2023-02-22T13:55:37.617Z,96760.16
2023-02-22T13:57:48.134Z,96760.75
2023-02-22T14:00:22.786Z,96762.28
2023-02-22T14:02:55.288Z,96760.75
2023-02-22T14:04:57.922Z,96755.69
2023-02-22T14:07:02.962Z,96762.47
2023-02-22T14:09:09.411Z,96757.13
2023-02-22T14:11:48.620Z,96758.69
2023-02-22T14:14:13.027Z,96758.13
2023-02-22T14:16:24.550Z,96756.56
2023-02-22T14:18:29.044Z,96754.81
2023-02-22T14:20:35.207Z,96757.41
2023-02-22T14:22:39.419Z,96753.09
2023-02-22T14:24:45.302Z,96754.09
2023-02-22T14:27:01.302Z,96757.19
2023-02-22T14:29:16.997Z,96756.06
2023-02-22T14:31:34.817Z,96754.03
2023-02-22T14:33:59.577Z,96757.50
2023-02-22T14:36:02.516Z,96754.22
2023-02-22T14:38:15.644Z,96753.75
2023-02-22T14:40:25.762Z,96749.78
2023-02-22T14:42:32.952Z,96748.94
2023-02-22T14:44:40.538Z,96744.75
2023-02-22T14:46:50.101Z,96747.66
2023-02-22T14:49:00.551Z,96750.56
2023-02-22T14:51:20.261Z,96749.72
2023-02-22T14:53:28.370Z,96748.75
2023-02-22T14:55:34.482Z,96751.56
2023-02-22T14:57:48.379Z,96750.91
2023-02-22T15:00:11.881Z,96747.63
2023-02-22T15:02:15.526Z,96749.56
2023-02-22T15:04:19.776Z,96752.38
2023-02-22T15:06:24.590Z,96744.88
2023-02-22T15:08:29.187Z,96742.50
2023-02-22T15:10:39.789Z,96748.84
2023-02-22T15:12:42.419Z,96750.97
2023-02-22T15:14:47.715Z,96746.00
2023-02-22T15:16:52.993Z,96750.66
2023-02-22T15:18:59.176Z,96744.81
2023-02-22T15:21:07.175Z,96747.63
2023-02-22T15:23:10.145Z,96747.84
2023-02-22T15:25:14.658Z,96744.66
2023-02-22T15:27:19.498Z,96740.50
2023-02-22T15:29:24.646Z,96748.53
2023-02-22T15:31:31.348Z,96747.84
2023-02-22T15:33:38.096Z,96751.50
2023-02-22T15:35:40.761Z,96751.72
2023-02-22T15:37:44.668Z,96745.81
2023-02-22T15:39:47.226Z,96746.94
2023-02-22T15:42:02.242Z,96751.47
2023-02-22T15:44:17.854Z,96748.09
2023-02-22T15:46:25.238Z,96743.13
2023-02-22T15:48:29.584Z,96748.50
2023-02-22T15:50:34.033Z,96747.72
2023-02-22T15:52:36.667Z,96750.34
2023-02-22T15:54:46.601Z,96752.31
2023-02-22T15:56:56.305Z,96756.78
2023-02-22T15:59:03.724Z,96756.84
2023-02-22T16:01:08.852Z,96758.00
2023-02-22T16:03:14.321Z,96755.50
2023-02-22T16:05:18.387Z,96757.25
2023-02-22T16:07:21.319Z,96758.31
2023-02-22T16:09:27.268Z,96759.25
2023-02-22T16:11:33.399Z,96759.44
2023-02-22T16:13:37.486Z,96756.88
2023-02-22T16:15:40.267Z,96755.25
2023-02-22T16:17:56.046Z,96757.09
2023-02-22T16:20:35.413Z,96761.63
2023-02-22T16:22:39.593Z,96752.94
2023-02-22T16:24:42.420Z,96753.03
2023-02-22T16:27:04.444Z,96758.34
2023-02-22T16:29:09.706Z,96758.59
2023-02-22T16:31:12.442Z,96762.88
2023-02-22T16:33:16.585Z,96762.09
2023-02-22T16:35:19.482Z,96766.50
2023-02-22T16:37:24.846Z,96762.25
2023-02-22T16:39:32.101Z,96762.34
2023-02-22T16:41:34.803Z,96765.13
2023-02-22T16:43:37.828Z,96768.63
2023-02-22T16:45:42.475Z,96765.28
2023-02-22T16:47:45.571Z,96770.56
2023-02-22T16:49:53.716Z,96774.19
2023-02-22T16:52:01.107Z,96775.88
2023-02-22T16:54:05.202Z,96782.72
2023-02-22T16:56:11.646Z,96784.09
2023-02-22T16:58:15.828Z,96778.78
2023-02-22T17:00:31.034Z,96790.31
2023-02-22T17:02:34.289Z,96786.19
2023-02-22T17:04:36.899Z,96795.09
2023-02-22T17:06:39.500Z,96795.31
2023-02-22T17:08:42.676Z,96793.69
2023-02-22T17:10:47.300Z,96793.00
2023-02-22T17:12:54.121Z,96799.22
2023-02-22T17:14:57.117Z,96805.38
2023-02-22T17:17:00.160Z,96801.09
2023-02-22T17:19:04.979Z,96805.44
2023-02-22T17:21:10.544Z,96801.22
2023-02-22T17:23:13.480Z,96800.91
2023-02-22T17:25:22.432Z,96801.22
2023-02-22T17:27:26.450Z,96807.63
2023-02-22T17:29:29.852Z,96806.06
2023-02-22T17:31:32.858Z,96807.13
2023-02-22T17:33:37.608Z,96815.13
2023-02-22T17:35:41.046Z,96812.59
2023-02-22T17:37:45.760Z,96811.91
2023-02-22T17:39:48.317Z,96818.59
2023-02-22T17:41:57.479Z,96820.50
2023-02-22T17:44:02.254Z,96819.22
2023-02-22T17:46:08.047Z,96823.97
2023-02-22T17:48:11.069Z,96829.19
2023-02-22T17:50:15.378Z,96831.16
2023-02-22T17:52:17.974Z,96827.94
2023-02-22T17:54:20.597Z,96831.81
2023-02-22T17:56:23.210Z,96836.38
2023-02-22T17:58:30.885Z,96833.84
2023-02-22T18:00:38.819Z,96841.22
2023-02-22T18:02:42.205Z,96835.91
2023-02-22T18:04:44.795Z,96837.75
2023-02-22T18:06:47.557Z,96837.91
2023-02-22T18:08:55.832Z,96837.28
2023-02-22T18:11:02.034Z,96843.47
2023-02-22T18:13:04.755Z,96837.59
2023-02-22T18:15:10.784Z,96840.47
2023-02-22T18:17:14.652Z,96842.09
2023-02-22T18:19:20.408Z,96849.41
2023-02-22T18:21:26.747Z,96851.53
2023-02-22T18:23:32.250Z,96849.19
2023-02-22T18:25:35.496Z,96849.22
2023-02-22T18:27:38.392Z,96852.75
2023-02-22T18:29:40.991Z,96847.59
2023-02-22T18:31:45.360Z,96852.03
2023-02-22T18:33:51.040Z,96848.59
2023-02-22T18:35:53.614Z,96845.22
2023-02-22T18:37:56.294Z,96840.78
2023-02-22T18:39:59.584Z,96841.75
2023-02-22T18:42:02.160Z,96848.16
2023-02-22T18:44:06.431Z,96846.03
2023-02-22T18:46:10.000Z,96843.72
2023-02-22T18:48:12.582Z,96847.13
2023-02-22T18:50:17.449Z,96855.75
2023-02-22T18:52:20.087Z,96846.97
2023-02-22T18:54:22.719Z,96848.41
2023-02-22T18:56:29.654Z,96847.72
2023-02-22T18:58:32.817Z,96848.50
2023-02-22T19:00:36.271Z,96844.69
2023-02-22T19:02:38.851Z,96846.91
2023-02-22T19:04:44.040Z,96840.63
2023-02-22T19:06:49.730Z,96850.72
2023-02-22T19:08:52.460Z,96849.97
2023-02-22T19:10:55.058Z,96849.13
2023-02-22T19:12:57.650Z,96851.38
2023-02-22T19:15:00.410Z,96852.94
2023-02-22T19:17:03.190Z,96846.94
2023-02-22T19:19:06.226Z,96845.19
2023-02-22T19:21:09.528Z,96850.56
2023-02-22T19:23:13.478Z,96853.72
2023-02-22T19:25:16.174Z,96855.69
2023-02-22T19:27:18.787Z,96848.50
2023-02-22T19:29:23.472Z,96846.78
2023-02-22T19:31:31.592Z,96850.31
2023-02-22T19:33:34.301Z,96848.66
2023-02-22T19:35:37.249Z,96844.34
2023-02-22T19:37:39.843Z,96849.81
2023-02-22T19:39:43.821Z,96853.28
2023-02-22T19:41:46.911Z,96851.22
2023-02-22T19:43:50.981Z,96851.41
2023-02-22T19:45:53.570Z,96850.59
2023-02-22T19:47:56.481Z,96851.09
2023-02-22T19:50:00.267Z,96850.47
2023-02-22T19:52:03.809Z,96848.06
2023-02-22T19:54:08.417Z,96848.16
2023-02-22T19:56:16.063Z,96844.63
2023-02-22T19:58:18.669Z,96854.22
2023-02-22T20:00:24.755Z,96854.56
2023-02-22T20:02:27.545Z,96855.91
2023-02-22T20:04:30.478Z,96853.63
2023-02-22T20:06:35.720Z,96849.78
2023-02-22T20:08:42.268Z,96851.53
2023-02-22T20:10:46.457Z,96854.25
2023-02-22T20:12:50.346Z,96849.28
2023-02-22T20:14:52.898Z,96853.78
2023-02-22T20:16:56.734Z,96856.31
2023-02-22T20:19:00.119Z,96850.47
2023-02-22T20:21:07.500Z,96855.34
2023-02-22T20:23:10.215Z,96855.44
2023-02-22T20:25:13.614Z,96852.88
2023-02-22T20:27:20.114Z,96849.66
2023-02-22T20:29:29.442Z,96860.00
2023-02-22T20:31:33.087Z,96854.09
2023-02-22T20:33:35.948Z,96860.16
2023-02-22T20:35:38.614Z,96856.00
2023-02-22T20:37:42.620Z,96857.88
2023-02-22T20:39:45.194Z,96860.16
2023-02-22T20:41:47.860Z,96855.22
2023-02-22T20:43:51.180Z,96852.84
2023-02-22T20:45:55.132Z,96862.56
2023-02-22T20:47:57.759Z,96854.88
2023-02-22T20:50:00.357Z,96859.31
2023-02-22T20:52:03.007Z,96855.78
2023-02-22T20:57:27.028Z,96864.69
2023-02-22T20:59:30.298Z,96865.66
2023-02-22T21:01:34.482Z,96864.09
2023-02-22T21:03:37.213Z,96864.88
2023-02-22T21:05:42.780Z,96863.25
2023-02-22T21:07:45.307Z,96863.44
2023-02-22T21:09:47.838Z,96861.00
2023-02-22T21:11:50.599Z,96864.44
2023-02-22T21:13:53.615Z,96868.09
2023-02-22T21:15:56.176Z,96863.66
2023-02-22T21:18:52.435Z,96866.44
2023-02-22T21:20:56.326Z,96867.00
2023-02-22T21:23:01.815Z,96863.75
2023-02-22T21:25:04.679Z,96864.16
2023-02-22T21:27:07.252Z,96863.97
2023-02-22T21:29:10.716Z,96866.28
2023-02-22T21:31:14.428Z,96866.53
2023-02-22T21:33:17.338Z,96866.13
2023-02-22T21:35:21.327Z,96868.94
2023-02-22T21:37:25.201Z,96863.09
2023-02-22T21:39:28.961Z,96858.16
2023-02-22T21:41:32.180Z,96859.97
2023-02-22T21:43:34.708Z,96859.19
2023-02-22T21:45:38.346Z,96857.50
2023-02-22T21:47:41.495Z,96856.72
2023-02-22T21:49:44.400Z,96854.19
2023-02-22T21:51:46.940Z,96860.25
2023-02-22T21:53:52.981Z,96856.44
2023-02-22T21:55:55.526Z,96854.13
2023-02-22T21:57:58.079Z,96853.69
2023-02-22T22:00:00.630Z,96858.94
2023-02-22T22:02:03.709Z,96859.72
2023-02-22T22:04:06.728Z,96859.22
2023-02-22T22:06:10.880Z,96860.25
2023-02-22T22:08:19.429Z,96854.25
2023-02-22T22:10:27.601Z,96852.56
2023-02-22T22:12:38.743Z,96856.84
2023-02-22T22:14:41.865Z,96857.63
2023-02-22T22:16:47.783Z,96860.25
2023-02-22T22:18:50.352Z,96862.19
2023-02-22T22:20:52.894Z,96855.31
2023-02-22T22:22:55.432Z,96855.22
2023-02-22T22:24:57.981Z,96855.22
2023-02-22T22:27:03.727Z,96852.69
2023-02-22T22:29:09.888Z,96849.88
2023-02-22T22:31:18.038Z,96849.25
2023-02-22T22:33:21.098Z,96858.56
2023-02-22T22:35:23.623Z,96843.06
2023-02-22T22:37:27.932Z,96855.69
2023-02-22T22:39:30.762Z,96849.63
2023-02-22T22:41:33.840Z,96853.94
2023-02-22T22:43:38.441Z,96856.59
2023-02-22T22:45:40.989Z,96861.53
2023-02-22T22:47:45.898Z,96857.44
2023-02-22T22:49:50.244Z,96849.81
2023-02-22T22:51:53.419Z,96854.25
2023-02-22T22:53:55.974Z,96856.00
2023-02-22T22:56:04.281Z,96847.34
2023-02-22T22:58:06.819Z,96856.06
2023-02-22T23:00:37.432Z,96849.03
2023-02-22T23:02:40.561Z,96852.16
2023-02-22T23:04:45.146Z,96851.41
2023-02-22T23:06:50.621Z,96859.31
2023-02-22T23:09:00.005Z,96854.91
2023-02-22T23:11:09.084Z,96858.34
2023-02-22T23:13:15.576Z,96857.50
2023-02-22T23:15:19.628Z,96859.25
2023-02-22T23:17:31.203Z,96855.81
2023-02-22T23:19:34.775Z,96854.09
2023-02-22T23:21:38.350Z,96856.66
2023-02-22T23:23:41.179Z,96854.91
2023-02-22T23:25:43.726Z,96850.59
2023-02-22T23:27:46.739Z,96855.81
2023-02-22T23:29:49.549Z,96848.06
2023-02-22T23:31:54.461Z,96857.56
2023-02-22T23:33:58.882Z,96854.09
2023-02-22T23:36:01.444Z,96855.94
2023-02-22T23:38:06.868Z,96849.88
2023-02-22T23:40:16.914Z,96852.44
2023-02-22T23:42:19.778Z,96852.50
2023-02-22T23:44:22.437Z,96850.84
2023-02-22T23:46:26.928Z,96854.25
2023-02-22T23:48:31.012Z,96854.31
2023-02-22T23:50:36.294Z,96857.78
2023-02-22T23:52:38.861Z,96859.50
2023-02-22T23:54:43.844Z,96852.56
2023-02-22T23:56:56.117Z,96854.91
2023-02-22T23:58:58.672Z,96857.69
